Sunrise, FL (33322)

2:42 PM EST on February 06, 2016 (GMT -0500)
Pine Island and Sunrise Blvd | | Change Station
CLOSE
Current Station
Personal Weather Station
Location: Fort Lauderdale, FL
Elevation: 16 ft
Nearby Weather Stations

Elev 16 ft 26.14 °N, 80.28 °W | Updated 13 minutes ago

Mostly Cloudy
Mostly Cloudy
82.6 °F
Feels Like 85 °F
N
3.2
Wind Variable Wind from SSE

Today
High -- | Low -- °F
--% Chance of Precip.
Yesterday
High -- | Low -- °F
Precip. -- in
Pressure 30.06 in
Visibility 10.0 miles
Clouds Few 2500 ft
Scattered Clouds 8000 ft
Heat Index 85 °F
Dew Point 66 °F
Humidity 58%
Rainfall 0.00 in
Snow Depth Not available.
7:02 AM 6:07 PM
Waning Crescent, 4% visible
METAR KFXE 061853Z 10007KT 10SM FEW025 SCT080 25/18 A3005 RMK AO2 RAE1756 SLP177 P0000 T02500178
Pressure 30.06 in
Visibility 10.0 miles
Clouds Few 2500 ft
Scattered Clouds 8000 ft
Heat Index 85 °F
Dew Point 66 °F
Humidity 58%
Rainfall 0.00 in
Snow Depth Not available.
7:02 AM 6:07 PM
Waning Crescent, 4% visible
METAR KFXE 061853Z 10007KT 10SM FEW025 SCT080 25/18 A3005 RMK AO2 RAE1756 SLP177 P0000 T02500178

10-Day Weather Forecast

Almanac

Astronomy

Feb. 06, 2016 Rise Set
Actual Time
Civil Twilight
Nautical Twilight
Astronomical Twilight
Moon
Length of Visible Light
Length of Day
Tomorrow will be .
, % of the Moon is Illuminated

Today's Extremes

State Highs State Lows

Community

WunderPhotos

Upload Photos

1,891,037 photos uploaded!

WunderBlog® & News

Nearby

Air Quality

  Air Quality AQ Index Pollutant
Not available.

Snow Depth

Station Depth Elevation

Earthquake Activity

City Distance Mag. Time & Date
Minimum magnitude displayed is 2.5.

Coastal Water Temperatures

Place Temperature

Stations

Nearby Weather Stations

Station Location Temp. Windchill Dew Point Humidity Wind Precip. Elev Updated Type
                   

Watches & Warnings

There are currently no watches in effect.